createdAt,value
2019-01-26T00:00:54.372Z,76.00
2019-01-26T00:03:48.664Z,75.80
2019-01-26T00:06:42.986Z,67.43
2019-01-26T00:09:37.253Z,72.40
2019-01-26T00:12:31.662Z,73.57
2019-01-26T00:15:26.274Z,72.47
2019-01-26T00:18:21.576Z,65.67
2019-01-26T00:21:15.836Z,74.40
2019-01-26T00:24:10.155Z,73.97
2019-01-26T00:27:04.776Z,67.97
2019-01-26T00:29:59.160Z,73.50
2019-01-26T00:32:53.414Z,70.43
2019-01-26T00:35:47.830Z,74.73
2019-01-26T00:38:42.030Z,75.93
2019-01-26T00:41:36.414Z,81.87
2019-01-26T00:44:30.970Z,78.33
2019-01-26T00:47:25.491Z,70.70
2019-01-26T00:50:19.866Z,73.90
2019-01-26T00:53:14.364Z,74.93
2019-01-26T00:56:08.730Z,77.27
2019-01-26T00:59:03.203Z,70.43
2019-01-26T01:01:57.627Z,71.60
2019-01-26T01:04:52.172Z,78.53
2019-01-26T01:07:46.667Z,80.07
2019-01-26T01:10:40.841Z,68.30
2019-01-26T01:13:35.290Z,65.23
2019-01-26T01:16:35.697Z,79.53
2019-01-26T01:19:26.019Z,81.10
2019-01-26T01:22:20.373Z,71.57
2019-01-26T01:25:14.879Z,71.33
2019-01-26T01:28:09.155Z,83.83
2019-01-26T01:31:03.631Z,81.27
2019-01-26T01:33:58.068Z,83.53
2019-01-26T01:36:52.729Z,65.03
2019-01-26T01:39:47.357Z,78.87
2019-01-26T01:42:42.095Z,73.70
2019-01-26T01:45:36.576Z,75.60
2019-01-26T01:48:30.833Z,69.67
2019-01-26T01:51:25.309Z,67.77
2019-01-26T01:54:19.964Z,68.67
2019-01-26T01:57:14.340Z,73.00
2019-01-26T02:00:11.467Z,60.90
2019-01-26T02:03:06.986Z,70.87
2019-01-26T02:06:02.385Z,70.07
2019-01-26T02:08:56.857Z,65.67
2019-01-26T02:11:51.254Z,60.27
2019-01-26T02:14:45.922Z,74.00
2019-01-26T02:17:40.101Z,67.70
2019-01-26T02:20:34.249Z,73.53
2019-01-26T02:23:28.627Z,73.53
2019-01-26T02:26:23.524Z,68.80
2019-01-26T02:29:18.080Z,72.40
2019-01-26T02:32:12.281Z,72.93
2019-01-26T02:35:07.007Z,63.80
2019-01-26T02:38:03.059Z,65.43
2019-01-26T02:40:57.351Z,64.20
2019-01-26T02:43:51.743Z,65.47
2019-01-26T02:50:27.146Z,66.73
2019-01-26T02:53:21.692Z,58.67
2019-01-26T02:56:17.366Z,57.07
2019-01-26T02:59:12.582Z,62.03
2019-01-26T03:02:07.539Z,64.27
2019-01-26T03:05:02.145Z,60.20
2019-01-26T03:07:56.939Z,61.67
2019-01-26T03:10:51.268Z,60.47
2019-01-26T03:13:45.425Z,61.83
2019-01-26T03:16:39.797Z,57.80
2019-01-26T03:19:34.349Z,60.50
2019-01-26T03:22:29.307Z,59.17
2019-01-26T03:25:27.657Z,55.80
2019-01-26T03:31:41.993Z,57.00
2019-01-26T03:34:36.623Z,61.60
2019-01-26T03:37:31.430Z,55.97
2019-01-26T03:40:26.254Z,52.63
2019-01-26T03:43:20.766Z,56.07
2019-01-26T03:46:15.287Z,52.33
2019-01-26T03:49:09.733Z,45.93
2019-01-26T03:52:04.630Z,51.90
2019-01-26T03:55:00.215Z,47.00
2019-01-26T03:57:55.152Z,51.67
2019-01-26T04:00:49.690Z,50.50
2019-01-26T04:03:44.016Z,56.60
2019-01-26T04:06:38.562Z,48.23
2019-01-26T04:09:33.615Z,57.90
2019-01-26T04:12:28.682Z,51.80
2019-01-26T04:15:24.194Z,58.70
2019-01-26T04:18:19.411Z,51.50
2019-01-26T04:21:14.559Z,53.57
2019-01-26T04:24:09.701Z,52.10
2019-01-26T04:27:04.891Z,61.23
2019-01-26T04:29:59.108Z,57.07
2019-01-26T04:32:53.291Z,69.27
2019-01-26T04:35:47.620Z,54.67
2019-01-26T04:38:42.224Z,62.67
2019-01-26T04:41:36.849Z,74.07
2019-01-26T04:44:31.073Z,72.73
2019-01-26T04:47:31.021Z,75.60
2019-01-26T04:50:22.945Z,69.20
2019-01-26T04:53:17.383Z,70.17
2019-01-26T04:56:12.258Z,73.83
2019-01-26T04:59:06.787Z,71.87
2019-01-26T05:02:01.152Z,64.83
2019-01-26T05:04:55.724Z,60.67
2019-01-26T05:07:50.172Z,69.50
2019-01-26T05:10:45.181Z,67.20
2019-01-26T05:13:40.080Z,62.80
2019-01-26T05:16:34.638Z,65.30
2019-01-26T05:19:29.002Z,67.00
2019-01-26T05:22:23.311Z,67.80
2019-01-26T05:25:18.831Z,60.43
2019-01-26T05:28:13.200Z,59.93
2019-01-26T05:31:07.494Z,58.50
2019-01-26T05:34:03.491Z,63.27
2019-01-26T05:36:58.190Z,69.97
2019-01-26T05:39:53.478Z,72.50
2019-01-26T05:42:48.785Z,73.00
2019-01-26T05:45:43.431Z,53.77
2019-01-26T05:48:38.003Z,61.40
2019-01-26T05:51:32.415Z,67.70
2019-01-26T05:54:27.599Z,61.67
2019-01-26T05:57:22.015Z,64.57
2019-01-26T06:00:20.989Z,69.67
2019-01-26T06:03:15.742Z,68.83
2019-01-26T06:06:10.872Z,58.03
2019-01-26T06:09:06.359Z,63.27
2019-01-26T06:12:01.074Z,63.93
2019-01-26T06:14:55.410Z,61.03
2019-01-26T06:17:55.015Z,68.53
2019-01-26T06:20:45.937Z,53.67
2019-01-26T06:23:41.991Z,64.23
2019-01-26T06:26:37.608Z,63.00
2019-01-26T06:29:32.679Z,58.40
2019-01-26T06:32:27.017Z,59.00
2019-01-26T06:35:21.393Z,62.17
2019-01-26T06:38:15.964Z,60.97
2019-01-26T06:41:10.166Z,59.60
2019-01-26T06:44:04.595Z,57.27
2019-01-26T06:46:59.130Z,54.27
2019-01-26T06:49:53.563Z,57.40
2019-01-26T06:52:47.934Z,59.60
2019-01-26T06:55:42.754Z,52.70
2019-01-26T06:58:37.993Z,58.33
2019-01-26T07:01:32.027Z,53.40
2019-01-26T07:04:53.250Z,47.93
2019-01-26T07:07:48.287Z,51.93
2019-01-26T07:10:43.870Z,51.07
2019-01-26T07:13:40.994Z,49.30
2019-01-26T07:16:35.178Z,52.83
2019-01-26T07:19:29.323Z,58.17
2019-01-26T07:22:23.797Z,50.77
2019-01-26T07:25:18.343Z,50.17
2019-01-26T07:28:12.622Z,53.80
2019-01-26T07:31:16.792Z,50.50
2019-01-26T07:34:11.316Z,51.23
2019-01-26T07:37:06.193Z,50.23
2019-01-26T07:40:00.702Z,51.03
2019-01-26T07:42:54.903Z,53.90
2019-01-26T07:45:50.595Z,49.53
2019-01-26T07:48:45.376Z,48.97
2019-01-26T07:51:40.777Z,50.43
2019-01-26T07:54:35.281Z,49.00
2019-01-26T07:57:29.849Z,49.47
2019-01-26T08:00:26.734Z,48.93
2019-01-26T08:03:21.743Z,50.93
2019-01-26T08:06:15.977Z,51.30
2019-01-26T08:09:12.291Z,46.87
2019-01-26T08:12:06.538Z,50.23
2019-01-26T08:15:00.626Z,45.57
2019-01-26T08:17:54.923Z,48.40
2019-01-26T08:20:49.185Z,42.53
2019-01-26T08:23:43.639Z,46.70
2019-01-26T08:26:38.149Z,47.77
2019-01-26T08:29:32.801Z,43.93
2019-01-26T08:32:27.259Z,48.50
2019-01-26T08:35:24.422Z,50.80
2019-01-26T08:38:18.798Z,46.17
2019-01-26T08:41:13.579Z,51.00
2019-01-26T08:44:08.105Z,47.97
2019-01-26T08:47:02.589Z,43.90
2019-01-26T08:49:57.503Z,48.27
2019-01-26T08:52:55.484Z,48.20
2019-01-26T08:55:49.909Z,46.93
2019-01-26T08:58:44.790Z,42.40
2019-01-26T09:01:41.637Z,44.17
2019-01-26T09:04:36.582Z,44.30
2019-01-26T09:07:31.328Z,48.97
2019-01-26T09:10:29.071Z,46.57
2019-01-26T09:13:23.479Z,47.17
2019-01-26T09:16:18.319Z,50.50
2019-01-26T09:19:17.750Z,50.47
2019-01-26T09:22:12.067Z,46.63
2019-01-26T09:25:06.939Z,52.60
2019-01-26T09:28:07.145Z,49.90
2019-01-26T09:31:01.566Z,58.67
2019-01-26T09:33:56.143Z,63.07
2019-01-26T09:36:52.724Z,62.17
2019-01-26T09:39:46.893Z,47.73
2019-01-26T09:42:41.067Z,64.73
2019-01-26T09:45:35.241Z,59.67
2019-01-26T09:48:29.500Z,47.70
2019-01-26T09:51:23.940Z,54.43
2019-01-26T09:54:18.148Z,60.83
2019-01-26T09:57:12.480Z,49.00
2019-01-26T10:00:07.689Z,56.57
2019-01-26T10:03:02.949Z,58.10
2019-01-26T10:05:57.151Z,57.13
2019-01-26T10:08:51.784Z,70.77
2019-01-26T10:11:47.699Z,66.03
2019-01-26T10:14:42.638Z,59.70
2019-01-26T10:17:45.408Z,52.60
2019-01-26T10:20:36.297Z,49.27
2019-01-26T10:23:33.459Z,54.40
2019-01-26T10:26:28.267Z,67.73
2019-01-26T10:29:22.810Z,65.50
2019-01-26T10:32:19.753Z,50.10
2019-01-26T10:35:14.982Z,71.40
2019-01-26T10:38:10.185Z,60.57
2019-01-26T10:41:22.200Z,62.27
2019-01-26T10:44:22.382Z,73.27
2019-01-26T10:47:16.709Z,114.17
2019-01-26T10:50:11.277Z,70.33
2019-01-26T10:53:05.926Z,68.33
2019-01-26T10:56:00.608Z,84.17
2019-01-26T10:58:55.576Z,60.93
2019-01-26T11:01:49.818Z,76.17
2019-01-26T11:04:44.184Z,69.80
2019-01-26T11:07:38.761Z,94.73
2019-01-26T11:10:35.214Z,84.77
2019-01-26T11:13:29.967Z,68.47
2019-01-26T11:16:24.425Z,91.67
2019-01-26T11:19:19.093Z,83.90
2019-01-26T11:22:15.369Z,77.63
2019-01-26T11:25:11.105Z,68.40
2019-01-26T11:28:05.837Z,86.67
2019-01-26T11:31:03.340Z,81.63
2019-01-26T11:33:57.539Z,86.17
2019-01-26T11:36:51.766Z,68.47
2019-01-26T11:39:48.337Z,82.60
2019-01-26T11:42:42.868Z,82.67
2019-01-26T11:45:53.679Z,77.60
2019-01-26T11:48:50.713Z,89.43
2019-01-26T11:52:03.455Z,77.00
2019-01-26T11:55:11.445Z,91.43
2019-01-26T11:58:05.575Z,89.03
2019-01-26T12:01:18.048Z,83.23
2019-01-26T12:04:28.947Z,83.23
2019-01-26T12:07:26.323Z,82.27
2019-01-26T12:10:20.628Z,89.07
2019-01-26T12:13:14.923Z,81.10
2019-01-26T12:16:09.070Z,82.40
2019-01-26T12:19:03.653Z,86.30
2019-01-26T12:21:57.736Z,82.30
2019-01-26T12:24:52.279Z,81.03
2019-01-26T12:27:46.792Z,73.37
2019-01-26T12:30:41.109Z,81.93
2019-01-26T12:33:35.364Z,65.37
2019-01-26T12:36:29.751Z,66.17
2019-01-26T12:39:25.515Z,79.97
2019-01-26T12:42:19.672Z,84.40
2019-01-26T12:45:17.694Z,79.10
2019-01-26T12:48:12.210Z,68.00
2019-01-26T12:51:06.812Z,67.90
2019-01-26T12:54:01.152Z,77.93
2019-01-26T12:56:55.361Z,82.90
2019-01-26T12:59:49.714Z,77.33
2019-01-26T13:02:43.785Z,79.43
2019-01-26T13:05:37.897Z,78.00
2019-01-26T13:08:32.494Z,76.37
2019-01-26T13:11:29.210Z,71.17
2019-01-26T13:14:23.665Z,81.53
2019-01-26T13:17:17.838Z,92.17
2019-01-26T13:20:13.262Z,85.23
2019-01-26T13:23:09.393Z,84.40
2019-01-26T13:26:03.943Z,74.63
2019-01-26T13:28:58.517Z,92.27
2019-01-26T13:31:53.184Z,77.30
2019-01-26T13:34:47.363Z,76.00
2019-01-26T13:37:41.570Z,83.87
2019-01-26T13:40:35.996Z,94.27
2019-01-26T13:43:30.752Z,100.37
2019-01-26T13:46:27.356Z,77.60
2019-01-26T13:49:21.790Z,80.07
2019-01-26T13:52:17.309Z,98.90
2019-01-26T13:55:14.762Z,73.13
2019-01-26T13:58:09.017Z,87.37
2019-01-26T14:01:03.748Z,81.47
2019-01-26T14:03:58.470Z,80.77
2019-01-26T14:06:53.826Z,94.47
2019-01-26T14:09:48.079Z,87.57
2019-01-26T14:12:42.876Z,90.97
2019-01-26T14:15:37.353Z,76.60
2019-01-26T14:18:32.213Z,105.43
2019-01-26T14:24:18.066Z,86.53
2019-01-26T14:27:12.914Z,103.50
2019-01-26T14:30:09.193Z,78.60
2019-01-26T14:33:04.149Z,113.60
2019-01-26T14:35:58.546Z,94.80
2019-01-26T14:38:53.297Z,104.20
2019-01-26T14:41:47.516Z,104.87
2019-01-26T14:47:34.376Z,107.57
2019-01-26T14:50:28.930Z,121.83
2019-01-26T14:53:23.472Z,85.50
2019-01-26T14:56:18.260Z,103.37
2019-01-26T14:59:13.463Z,87.50
2019-01-26T15:02:09.149Z,105.57
2019-01-26T15:05:04.058Z,108.10
2019-01-26T15:07:59.660Z,110.50
2019-01-26T15:10:54.483Z,97.20
2019-01-26T15:13:49.340Z,107.53
2019-01-26T15:16:44.277Z,100.97
2019-01-26T15:19:39.532Z,124.73
2019-01-26T15:22:34.192Z,110.63
2019-01-26T15:25:29.205Z,99.37
2019-01-26T15:28:24.031Z,115.10
2019-01-26T15:31:19.483Z,107.60
2019-01-26T15:34:14.302Z,122.60
2019-01-26T15:37:08.767Z,112.30
2019-01-26T15:40:03.132Z,130.90
2019-01-26T15:42:57.721Z,109.00
2019-01-26T15:45:53.502Z,112.73
2019-01-26T15:48:47.979Z,123.60
2019-01-26T15:51:42.157Z,132.63
2019-01-26T15:54:37.385Z,106.17
2019-01-26T15:57:31.982Z,112.23
2019-01-26T16:00:28.522Z,128.37
2019-01-26T16:03:23.739Z,110.80
2019-01-26T16:06:18.147Z,119.97
2019-01-26T16:09:13.442Z,103.10
2019-01-26T16:12:06.640Z,120.47
2019-01-26T16:15:00.771Z,117.97
2019-01-26T16:17:55.476Z,130.40
2019-01-26T16:20:50.103Z,117.53
2019-01-26T16:23:44.440Z,131.73
2019-01-26T16:26:38.888Z,137.33
2019-01-26T16:29:33.526Z,131.97
2019-01-26T16:32:27.775Z,135.77
2019-01-26T16:35:22.461Z,157.87
2019-01-26T16:38:16.960Z,125.63
2019-01-26T16:41:11.550Z,105.30
2019-01-26T16:44:06.156Z,132.70
2019-01-26T16:47:00.463Z,120.57
2019-01-26T16:49:56.646Z,110.77
2019-01-26T16:52:50.850Z,119.03
2019-01-26T16:55:45.070Z,135.97
2019-01-26T16:58:39.195Z,156.67
2019-01-26T17:01:33.501Z,155.33
2019-01-26T17:04:28.311Z,118.03
2019-01-26T17:07:22.827Z,147.30
2019-01-26T17:10:19.157Z,150.30
2019-01-26T17:13:13.805Z,171.83
2019-01-26T17:16:08.341Z,157.03
2019-01-26T17:19:03.424Z,149.33
2019-01-26T17:21:57.876Z,119.67
2019-01-26T17:24:52.803Z,152.60
2019-01-26T17:27:47.467Z,154.27
2019-01-26T17:30:43.358Z,122.80
2019-01-26T17:33:37.988Z,126.90
2019-01-26T17:36:32.923Z,172.13
2019-01-26T17:39:27.628Z,164.37
2019-01-26T17:42:22.193Z,139.23
2019-01-26T17:45:16.694Z,168.40
2019-01-26T17:48:12.314Z,156.00
2019-01-26T17:51:06.671Z,163.40
2019-01-26T17:54:01.068Z,159.47
2019-01-26T17:56:55.892Z,140.90
2019-01-26T17:59:50.065Z,148.87
2019-01-26T18:02:44.369Z,119.40
2019-01-26T18:05:38.920Z,155.53
2019-01-26T18:08:33.618Z,151.73
2019-01-26T18:11:28.513Z,149.23
2019-01-26T18:14:22.937Z,129.00
2019-01-26T18:17:17.819Z,133.10
2019-01-26T18:20:15.470Z,149.07
2019-01-26T18:23:10.813Z,147.33
2019-01-26T18:26:05.086Z,126.37
2019-01-26T18:28:59.850Z,159.03
2019-01-26T18:31:54.471Z,154.57
2019-01-26T18:34:49.366Z,152.47
2019-01-26T18:37:44.100Z,171.67
2019-01-26T18:40:38.613Z,163.27
2019-01-26T18:43:34.296Z,162.17
2019-01-26T18:49:18.816Z,151.30
2019-01-26T18:52:12.950Z,156.97
2019-01-26T18:55:08.037Z,154.37
2019-01-26T18:58:03.391Z,152.80
2019-01-26T19:00:58.433Z,158.30
2019-01-26T19:04:01.972Z,136.57
2019-01-26T19:06:56.698Z,141.27
2019-01-26T19:09:52.694Z,160.20
2019-01-26T19:12:47.672Z,144.63
2019-01-26T19:15:42.328Z,150.07
2019-01-26T19:18:36.726Z,136.77
2019-01-26T19:21:30.869Z,156.07
2019-01-26T19:24:25.328Z,142.73
2019-01-26T19:27:19.416Z,149.47
2019-01-26T19:30:16.970Z,127.47
2019-01-26T19:33:12.164Z,150.50
2019-01-26T19:36:06.719Z,151.73
2019-01-26T19:39:01.203Z,143.63
2019-01-26T19:41:56.204Z,147.73
2019-01-26T19:44:50.763Z,160.00
2019-01-26T19:47:44.894Z,150.93
2019-01-26T19:50:38.991Z,137.43
2019-01-26T19:53:33.358Z,124.53
2019-01-26T19:56:27.788Z,133.13
2019-01-26T19:59:22.172Z,141.63
2019-01-26T20:02:16.678Z,146.43
2019-01-26T20:05:12.464Z,149.27
2019-01-26T20:08:07.618Z,150.10
2019-01-26T20:11:01.939Z,154.27
2019-01-26T20:13:56.033Z,154.13
2019-01-26T20:16:50.363Z,154.60
2019-01-26T20:19:44.598Z,160.70
2019-01-26T20:22:38.921Z,146.03
2019-01-26T20:25:33.193Z,159.77
2019-01-26T20:28:27.324Z,158.37
2019-01-26T20:31:21.652Z,151.93
2019-01-26T20:34:15.731Z,158.10
2019-01-26T20:37:10.139Z,161.13
2019-01-26T20:40:04.503Z,162.10
2019-01-26T20:42:58.865Z,146.30
2019-01-26T20:45:53.378Z,162.93
2019-01-26T20:48:47.938Z,123.73
2019-01-26T20:51:42.334Z,141.07
2019-01-26T20:54:37.482Z,128.30
2019-01-26T20:57:32.301Z,118.47
2019-01-26T21:00:28.840Z,139.67
2019-01-26T21:03:23.100Z,139.87
2019-01-26T21:06:17.382Z,141.73
2019-01-26T21:09:12.828Z,210.97
2019-01-26T21:12:07.167Z,208.60
2019-01-26T21:15:04.764Z,180.77
2019-01-26T21:17:58.594Z,204.50
2019-01-26T21:20:54.405Z,201.00
2019-01-26T21:23:48.318Z,199.40
2019-01-26T21:26:42.612Z,208.20
2019-01-26T21:29:36.766Z,205.07
2019-01-26T21:32:31.165Z,210.87
2019-01-26T21:35:25.598Z,205.67
2019-01-26T21:38:20.061Z,218.67
2019-01-26T21:41:14.206Z,203.40
2019-01-26T21:44:09.404Z,185.50
2019-01-26T21:47:03.505Z,212.27
2019-01-26T21:50:00.375Z,190.50
2019-01-26T21:52:54.562Z,191.57
2019-01-26T21:55:48.813Z,164.23
2019-01-26T21:58:43.391Z,178.17
2019-01-26T22:01:37.882Z,138.50
2019-01-26T22:04:32.163Z,176.83
2019-01-26T22:07:26.696Z,228.17
2019-01-26T22:10:22.679Z,201.67
2019-01-26T22:13:17.002Z,171.03
2019-01-26T22:16:11.364Z,161.47
2019-01-26T22:19:05.886Z,221.73
2019-01-26T22:22:00.275Z,166.33
2019-01-26T22:24:54.555Z,208.77
2019-01-26T22:27:48.905Z,161.77
2019-01-26T22:30:43.112Z,149.40
2019-01-26T22:33:38.100Z,199.40
2019-01-26T22:36:32.284Z,176.40
2019-01-26T22:39:26.500Z,172.13
2019-01-26T22:42:21.038Z,180.87
2019-01-26T22:45:15.645Z,165.40
2019-01-26T22:48:10.177Z,167.13
2019-01-26T22:51:04.511Z,163.00
2019-01-26T22:53:59.104Z,180.63
2019-01-26T22:56:53.526Z,154.67
2019-01-26T22:59:47.904Z,166.87
2019-01-26T23:02:42.736Z,151.30
2019-01-26T23:06:19.126Z,162.03
2019-01-26T23:10:04.162Z,155.37
2019-01-26T23:13:27.198Z,158.23
2019-01-26T23:17:25.363Z,160.77
2019-01-26T23:20:38.815Z,145.80
2019-01-26T23:24:02.282Z,157.00
2019-01-26T23:27:40.417Z,151.90
2019-01-26T23:31:07.507Z,148.77
2019-01-26T23:34:02.156Z,152.53
2019-01-26T23:36:57.335Z,146.33
2019-01-26T23:39:51.805Z,154.80
2019-01-26T23:42:47.901Z,146.33
2019-01-26T23:45:41.918Z,143.23
2019-01-26T23:48:36.578Z,144.00
2019-01-26T23:51:30.650Z,146.27
2019-01-26T23:54:24.865Z,147.70
2019-01-26T23:57:19.319Z,151.13
